Time;durP1;ratioP1;P1;durP2;ratioP2;P2;SDS_P1;SDS_P2;PMS_P1;PMS_P2;Temp;Humidity;BMP_temperature;BMP_pressure;BME280_temperature;BME280_humidity;BME280_pressure;Samples;Min_cycle;Max_cycle;Signal;HPM_P1;HPM_P2
2023/09/27 00:08:11;;;;;;;2.60;2.10;;;;;;;18.94;87.06;101633.16;20859072;28;20102;-63
2023/09/27 00:18:13;;;;;;;2.30;2.10;;;;;;;18.87;87.03;101617.59;20867882;28;20448;-63
2023/09/27 00:28:15;;;;;;;2.90;2.33;;;;;;;18.91;86.88;101646.88;20847976;28;20077;-63
2023/09/27 00:38:17;;;;;;;4.15;2.28;;;;;;;18.90;86.80;101664.06;20850108;28;20551;-63
2023/09/27 00:48:19;;;;;;;3.13;2.28;;;;;;;18.88;86.91;101667.88;20847566;28;20057;-63
2023/09/27 00:58:21;;;;;;;3.35;2.45;;;;;;;18.88;86.62;101667.88;20823301;28;20057;-63
2023/09/27 01:08:23;;;;;;;4.32;2.88;;;;;;;18.87;86.85;101663.47;20828299;28;20049;-63
2023/09/27 01:18:26;;;;;;;2.85;2.55;;;;;;;18.85;86.38;101655.47;20856948;28;20050;-63
2023/09/27 01:28:29;;;;;;;3.72;3.03;;;;;;;18.83;86.45;101662.84;20822423;28;20041;-63
2023/09/27 01:38:31;;;;;;;4.25;3.13;;;;;;;18.83;86.18;101649.34;20829445;28;20075;-63
2023/09/27 01:48:33;;;;;;;3.85;3.13;;;;;;;18.88;86.23;101644.44;20828396;28;20156;-63
2023/09/27 01:58:34;;;;;;;4.05;3.33;;;;;;;18.89;85.76;101654.25;20816609;28;20820;-63
2023/09/27 02:08:36;;;;;;;3.90;2.60;;;;;;;18.88;85.85;101657.94;20838776;28;20493;-63
2023/09/27 02:18:39;;;;;;;5.25;2.85;;;;;;;18.88;85.60;101666.03;20819504;28;20046;-63
2023/09/27 02:28:40;;;;;;;4.07;3.25;;;;;;;18.86;85.57;101657.19;20839853;28;20102;-63
2023/09/27 02:38:43;;;;;;;3.67;2.95;;;;;;;18.85;85.38;101650.09;20765710;28;20125;-63
2023/09/27 02:48:44;;;;;;;3.20;2.90;;;;;;;18.84;85.20;101659.16;20758902;28;20064;-63
2023/09/27 02:58:47;;;;;;;3.20;2.90;;;;;;;18.82;84.76;101655.72;20761256;28;20077;-63
2023/09/27 03:08:48;;;;;;;3.53;2.75;;;;;;;18.81;84.47;101664.81;20754664;28;20050;-63
2023/09/27 03:18:50;;;;;;;4.03;2.85;;;;;;;18.69;84.37;101640.53;20746207;28;20049;-63
2023/09/27 03:28:52;;;;;;;2.97;2.67;;;;;;;18.74;84.22;101653.66;20766330;28;20050;-63
2023/09/27 03:38:54;;;;;;;3.50;2.75;;;;;;;18.70;83.80;101647.66;20753702;28;20460;-64
2023/09/27 03:48:56;;;;;;;3.13;2.55;;;;;;;18.67;83.85;101652.44;20785884;28;20136;-64
2023/09/27 03:58:58;;;;;;;2.75;2.20;;;;;;;18.63;83.71;101638.34;20804515;28;20065;-64
2023/09/27 04:09:00;;;;;;;3.17;2.88;;;;;;;18.60;83.56;101654.78;20768165;28;20549;-63
2023/09/27 04:19:02;;;;;;;2.83;2.33;;;;;;;18.57;83.64;101649.63;20760441;28;20049;-63
2023/09/27 04:29:04;;;;;;;2.70;2.30;;;;;;;18.53;83.29;101650.81;20777424;28;20042;-63
2023/09/27 04:39:12;;;;;;;2.57;2.30;;;;;;;18.51;83.22;101659.06;20824960;28;20049;-63
2023/09/27 04:49:14;;;;;;;2.50;2.25;;;;;;;18.47;83.33;101678.28;20838362;28;20052;-63
2023/09/27 04:59:16;;;;;;;3.47;2.10;;;;;;;18.46;82.98;101671.16;20834817;28;20048;-63
2023/09/27 05:09:18;;;;;;;2.45;2.25;;;;;;;18.43;83.31;101696.56;20843187;28;20051;-63
2023/09/27 05:19:20;;;;;;;3.10;2.67;;;;;;;18.32;83.35;101702.78;20821528;28;20056;-63
2023/09/27 05:29:22;;;;;;;2.70;2.50;;;;;;;18.39;83.21;101717.50;20840377;28;20540;-63
2023/09/27 05:39:24;;;;;;;4.20;2.90;;;;;;;18.39;83.32;101709.41;20845660;28;20072;-63
2023/09/27 05:49:26;;;;;;;3.42;2.40;;;;;;;18.39;83.24;101714.78;20805042;28;20053;-63
2023/09/27 05:59:28;;;;;;;3.08;2.35;;;;;;;18.41;83.07;101695.81;20852758;28;20049;-63
2023/09/27 06:09:30;;;;;;;2.53;2.25;;;;;;;18.43;83.04;101693.84;20821529;28;20516;-63
2023/09/27 06:19:33;;;;;;;2.83;2.35;;;;;;;18.45;82.79;101699.13;20830786;28;20544;-63
2023/09/27 06:29:34;;;;;;;2.50;2.30;;;;;;;18.47;82.86;101705.25;20802153;28;20103;-63
2023/09/27 06:39:37;;;;;;;3.38;2.65;;;;;;;18.48;82.95;101675.47;20810333;28;20053;-63
2023/09/27 06:49:44;;;;;;;3.25;2.92;;;;;;;18.51;82.69;101686.03;20857188;28;20144;-63
2023/09/27 06:59:46;;;;;;;3.47;3.03;;;;;;;18.57;82.82;101695.47;20836951;28;20178;-63
2023/09/27 07:09:48;;;;;;;4.85;3.53;;;;;;;18.80;82.18;101700.84;20836295;28;20049;-63
2023/09/27 07:19:51;;;;;;;4.18;3.78;;;;;;;19.22;81.02;101714.59;20819198;28;20040;-62
2023/09/27 07:29:56;;;;;;;8.82;3.67;;;;;;;19.31;82.33;101725.63;20812900;28;20065;-63
2023/09/27 07:39:58;;;;;;;6.13;3.55;;;;;;;19.52;81.67;101717.59;20807131;28;20140;-64
2023/09/27 07:50:00;;;;;;;4.25;3.20;;;;;;;19.51;82.22;101732.06;20830942;28;20045;-66
2023/09/27 08:00:15;;;;;;;11.65;3.78;;;;;;;19.60;82.14;101731.31;20863137;28;20048;-64
2023/09/27 08:10:18;;;;;;;5.22;3.22;;;;;;;19.68;81.92;101733.38;20865068;28;20049;-64
2023/09/27 08:20:23;;;;;;;4.93;3.28;;;;;;;19.74;82.04;101730.16;20821719;28;20060;-65
2023/09/27 08:30:25;;;;;;;5.68;3.60;;;;;;;19.86;82.29;101720.19;20815568;28;20135;-62
2023/09/27 08:40:27;;;;;;;4.60;3.85;;;;;;;19.97;82.68;101730.13;20781623;28;20050;-63
2023/09/27 08:50:29;;;;;;;4.75;3.35;;;;;;;20.12;82.61;101726.09;20783294;28;20048;-63
2023/09/27 09:00:32;;;;;;;5.88;3.45;;;;;;;20.30;82.48;101733.63;20781663;28;20048;-64
2023/09/27 09:10:37;;;;;;;5.57;3.38;;;;;;;20.46;82.40;101756.66;20788735;28;20060;-62
2023/09/27 09:20:54;;;;;;;3.85;3.20;;;;;;;20.49;82.71;101784.28;20806438;28;20457;-63
2023/09/27 09:30:56;;;;;;;6.85;3.13;;;;;;;20.51;82.82;101778.75;20825420;28;20053;-63
2023/09/27 09:41:00;;;;;;;3.05;2.72;;;;;;;20.48;83.11;101784.41;20797001;28;20055;-62
2023/09/27 09:51:06;;;;;;;3.93;2.70;;;;;;;20.51;83.30;101767.94;20813890;28;20053;-63
2023/09/27 10:01:13;;;;;;;3.08;2.40;;;;;;;20.53;83.11;101761.38;20780339;28;20183;-62
2023/09/27 10:11:15;;;;;;;5.13;2.95;;;;;;;20.68;83.25;101745.66;20810022;28;20053;-64
2023/09/27 10:21:17;;;;;;;4.72;2.90;;;;;;;20.80;83.44;101732.09;20808519;28;20072;-62
2023/09/27 10:31:19;;;;;;;4.28;2.95;;;;;;;20.88;83.25;101707.91;20790284;28;20140;-64
2023/09/27 10:41:34;;;;;;;4.60;2.88;;;;;;;20.93;83.44;101683.13;20830489;28;20052;-63
2023/09/27 10:51:36;;;;;;;4.43;2.72;;;;;;;20.92;83.52;101663.34;20827063;28;20054;-63
2023/09/27 11:01:42;;;;;;;4.22;3.15;;;;;;;20.83;83.93;101650.63;20825016;28;20060;-64
2023/09/27 11:11:51;;;;;;;4.40;2.58;;;;;;;20.91;84.08;101649.94;20804546;28;20053;-63
2023/09/27 11:21:52;;;;;;;3.33;2.30;;;;;;;20.94;84.29;101636.13;20822943;28;20056;-63
2023/09/27 11:31:58;;;;;;;3.58;2.63;;;;;;;20.93;84.26;101643.41;20790636;28;20053;-62
2023/09/27 11:41:59;;;;;;;2.50;2.20;;;;;;;20.93;84.18;101632.56;20797750;28;20049;-62
2023/09/27 11:52:02;;;;;;;2.92;2.03;;;;;;;20.99;83.96;101607.66;20791304;28;20045;-61
2023/09/27 12:02:05;;;;;;;3.60;2.50;;;;;;;21.10;83.65;101598.56;20790857;28;20052;-61
2023/09/27 12:12:21;;;;;;;3.33;1.98;;;;;;;21.13;83.24;101563.06;20803629;28;20049;-63
2023/09/27 12:22:29;;;;;;;3.58;2.15;;;;;;;21.22;83.07;101539.72;20807757;28;20130;-62
2023/09/27 12:32:30;;;;;;;3.80;1.92;;;;;;;21.23;83.18;101560.38;20785218;28;20045;-62
2023/09/27 12:42:32;;;;;;;2.28;1.98;;;;;;;21.24;83.03;101564.78;20793690;28;20134;-63
2023/09/27 12:52:34;;;;;;;3.72;1.90;;;;;;;21.25;83.16;101550.25;20807169;28;20064;-63
2023/09/27 13:02:37;;;;;;;2.40;2.13;;;;;;;21.27;83.13;101548.25;20800950;28;20057;-64
2023/09/27 13:12:39;;;;;;;3.08;1.90;;;;;;;21.30;83.13;101536.25;20825764;28;20055;-63
2023/09/27 13:22:44;;;;;;;2.35;1.83;;;;;;;21.33;82.70;101518.88;20802446;28;20206;-63
2023/09/27 13:32:46;;;;;;;4.10;2.13;;;;;;;21.33;82.50;101492.66;20823124;28;20135;-64
2023/09/27 13:42:47;;;;;;;2.08;1.73;;;;;;;21.41;82.24;101498.19;20808311;28;20049;-63
2023/09/27 13:52:49;;;;;;;2.58;1.80;;;;;;;21.42;82.28;101496.34;20798564;28;20061;-60
2023/09/27 14:02:51;;;;;;;2.30;1.67;;;;;;;21.40;82.69;101485.63;20798263;28;20061;-64
2023/09/27 14:12:53;;;;;;;2.70;1.80;;;;;;;21.40;83.12;101468.56;20813168;28;20120;-60
2023/09/27 14:22:56;;;;;;;1.92;1.70;;;;;;;21.40;82.99;101472.09;20794554;28;20061;-62
2023/09/27 14:33:00;;;;;;;2.67;1.97;;;;;;;21.41;83.09;101459.44;20773376;28;20132;-62
2023/09/27 14:43:02;;;;;;;3.13;2.33;;;;;;;21.40;82.92;101460.44;20793169;28;20428;-63
2023/09/27 14:53:04;;;;;;;2.67;2.00;;;;;;;21.38;82.96;101447.00;20778586;28;20060;-63
2023/09/27 15:03:06;;;;;;;2.63;1.60;;;;;;;21.36;82.73;101418.38;20795274;28;20060;-62
2023/09/27 15:13:08;;;;;;;2.00;1.80;;;;;;;21.33;82.19;101394.31;20807505;28;20073;-62
2023/09/27 15:23:09;;;;;;;2.85;1.85;;;;;;;21.29;82.15;101363.94;20797152;28;20045;-63
2023/09/27 15:33:11;;;;;;;4.35;1.80;;;;;;;21.27;82.48;101366.81;20806251;28;20049;-62
2023/09/27 15:43:13;;;;;;;1.88;1.45;;;;;;;21.25;82.55;101360.72;20819073;28;20045;-62
2023/09/27 15:53:15;;;;;;;2.13;1.60;;;;;;;21.23;82.77;101330.22;20814930;28;20060;-63
2023/09/27 16:03:17;;;;;;;3.58;1.95;;;;;;;21.24;83.17;101331.91;20820032;28;20083;-63
2023/09/27 16:13:22;;;;;;;6.10;1.90;;;;;;;21.26;83.52;101319.09;20808673;28;20132;-64
2023/09/27 16:23:25;;;;;;;4.05;2.05;;;;;;;21.24;84.42;101318.38;20818495;28;20132;-64
2023/09/27 16:33:27;;;;;;;3.03;2.13;;;;;;;21.22;85.82;101309.56;20822301;28;20168;-64
2023/09/27 16:43:29;;;;;;;3.97;2.47;;;;;;;21.23;86.26;101307.69;20806398;28;20224;-65
2023/09/27 16:53:33;;;;;;;4.78;3.22;;;;;;;21.22;86.89;101305.97;20813015;28;20056;-64
2023/09/27 17:03:35;;;;;;;3.05;2.75;;;;;;;21.27;89.75;101309.09;20789403;28;20072;-65
2023/09/27 17:13:37;;;;;;;4.70;2.80;;;;;;;21.36;90.36;101289.22;20791430;28;20485;-64
2023/09/27 17:23:39;;;;;;;3.83;2.47;;;;;;;21.37;90.58;101292.81;20794679;28;20060;-64
2023/09/27 17:33:42;;;;;;;3.00;2.13;;;;;;;21.35;90.36;101282.13;20810567;28;20099;-63
2023/09/27 17:43:45;;;;;;;3.60;2.70;;;;;;;21.30;90.80;101260.91;20792373;28;20060;-65
2023/09/27 17:53:47;;;;;;;3.55;2.72;;;;;;;21.28;90.99;101248.50;20810075;28;20462;-65
2023/09/27 18:03:48;;;;;;;5.45;2.78;;;;;;;21.25;90.99;101228.03;20822233;28;20060;-65
2023/09/27 18:13:50;;;;;;;3.63;2.40;;;;;;;21.22;91.12;101224.75;20783353;28;20053;-64
2023/09/27 18:23:53;;;;;;;3.20;2.63;;;;;;;21.17;91.21;101222.47;20791326;28;20053;-63
2023/09/27 18:33:56;;;;;;;3.30;3.00;;;;;;;21.10;91.27;101240.34;20799030;28;22377;-65
2023/09/27 18:43:58;;;;;;;4.78;2.53;;;;;;;21.06;90.54;101247.06;20794718;28;20045;-65
2023/09/27 18:54:00;;;;;;;3.80;2.50;;;;;;;20.98;90.06;101240.53;20814774;28;20501;-65
2023/09/27 19:04:01;;;;;;;3.90;2.80;;;;;;;20.89;90.04;101246.84;20838828;28;20049;-65
2023/09/27 19:14:04;;;;;;;4.70;2.95;;;;;;;20.81;90.18;101216.97;20802557;28;20048;-65
2023/09/27 19:24:06;;;;;;;3.58;3.28;;;;;;;20.72;90.53;101180.78;20830326;28;20045;-65
2023/09/27 19:34:08;;;;;;;3.30;2.92;;;;;;;20.65;90.57;101160.75;20840497;28;20390;-65
2023/09/27 19:44:09;;;;;;;4.00;3.03;;;;;;;20.58;90.88;101163.19;20829163;28;20046;-65
2023/09/27 19:54:11;;;;;;;3.42;3.13;;;;;;;20.54;90.84;101164.47;20811664;28;20139;-66
2023/09/27 20:04:13;;;;;;;4.25;2.80;;;;;;;20.47;90.92;101134.47;20797300;28;20517;-64
2023/09/27 20:14:15;;;;;;;3.80;3.38;;;;;;;20.44;90.97;101142.88;20815680;28;20053;-65
2023/09/27 20:24:17;;;;;;;3.50;2.85;;;;;;;20.41;90.75;101125.09;20810373;28;20049;-65
2023/09/27 20:34:18;;;;;;;3.35;3.05;;;;;;;20.37;90.81;101134.50;20804495;28;20471;-65
2023/09/27 20:44:20;;;;;;;3.25;2.95;;;;;;;20.32;90.93;101134.06;20803424;28;20054;-65
2023/09/27 20:54:22;;;;;;;3.53;2.75;;;;;;;20.26;91.10;101122.00;20801908;28;20057;-65
2023/09/27 21:04:24;;;;;;;3.25;2.95;;;;;;;20.22;91.29;101098.97;20799042;28;20520;-65
2023/09/27 21:14:26;;;;;;;3.72;2.60;;;;;;;20.19;91.40;101079.47;20802568;28;20053;-65
2023/09/27 21:24:28;;;;;;;3.55;2.95;;;;;;;20.19;91.32;101074.06;20806817;28;20070;-65
2023/09/27 21:34:29;;;;;;;3.28;2.97;;;;;;;20.17;91.30;101054.47;20830264;28;20227;-65
2023/09/27 21:44:31;;;;;;;3.15;2.85;;;;;;;20.14;91.15;101034.00;20834338;28;20523;-65
2023/09/27 21:54:33;;;;;;;3.00;2.70;;;;;;;20.12;91.36;101034.13;20871478;28;20053;-65
2023/09/27 22:04:35;;;;;;;3.22;2.92;;;;;;;20.11;91.22;101015.38;20871374;28;20102;-65
2023/09/27 22:14:37;;;;;;;3.40;3.10;;;;;;;20.10;91.07;101003.69;20874699;28;20060;-66
2023/09/27 22:24:40;;;;;;;3.72;3.15;;;;;;;20.10;90.91;100957.75;20886652;28;20052;-65
2023/09/27 22:34:42;;;;;;;2.67;2.47;;;;;;;20.10;90.70;100959.59;20854133;28;20151;-66
2023/09/27 22:44:43;;;;;;;2.90;2.50;;;;;;;20.09;90.61;100952.47;20811471;28;20053;-65
2023/09/27 22:54:45;;;;;;;2.80;2.55;;;;;;;20.08;90.60;100937.28;20818952;28;20053;-65
2023/09/27 23:04:51;;;;;;;2.70;2.50;;;;;;;20.05;90.58;100941.13;20821857;28;20530;-65
2023/09/27 23:15:08;;;;;;;2.90;2.50;;;;;;;20.06;90.49;100936.56;20821339;28;20053;-65
2023/09/27 23:35:31;;;;;;;2.97;2.63;;;;;;;20.05;90.38;100997.03;20823047;28;20049;-65
2023/09/27 23:45:34;;;;;;;3.28;2.40;;;;;;;20.02;90.41;100987.38;20854099;28;20135;-65
2023/09/27 23:55:40;;;;;;;2.88;2.40;;;;;;;20.01;90.30;100966.75;20851355;28;20057;-65
